Terminal Aerodrome Forecast
Issued by NWS

Home | Current Version | Previous Version | Text Only | Print | Product List | Glossary On
Versions: 1 2 3 4 5 6 7 8 9 10 11 12 13
000
FTUS42 TJSJ 222300
TAFJBQ
TAF
TJBQ 222325Z 2300/2324 07005KT P6SM SCT030 SCT050
     FM231400 07013KT P6SM SCT025
     FM232130 10005KT P6SM FEW025
      AMD NOT SKED 2302/2311=

USA.gov is the U.S. government's official web portal to all federal, state and local government web resources and services.